Time;durP1;ratioP1;P1;durP2;ratioP2;P2;SDS_P1;SDS_P2;PMS_P1;PMS_P2;Temp;Humidity;BMP_temperature;BMP_pressure;BME280_temperature;BME280_humidity;BME280_pressure;Samples;Min_cycle;Max_cycle;Signal;HPM_P1;HPM_P2
2022/08/09 00:02:13;;;;;;;2.60;2.50;;;;;;;15.61;100.00;96941.94;5029967;28;105121;-62
2022/08/09 00:04:40;;;;;;;3.70;2.70;;;;;;;15.33;100.00;96934.44;5029330;28;106595;-62
2022/08/09 00:07:09;;;;;;;3.07;2.87;;;;;;;15.39;100.00;96936.03;5029899;28;101975;-62
2022/08/09 00:09:36;;;;;;;3.23;3.00;;;;;;;15.25;100.00;96935.72;5031099;28;102887;-62
2022/08/09 00:12:03;;;;;;;3.23;3.03;;;;;;;15.17;100.00;96932.78;5029374;28;105078;-62
2022/08/09 00:14:31;;;;;;;3.20;3.00;;;;;;;15.19;100.00;96934.13;5030104;28;102011;-62
2022/08/09 00:16:58;;;;;;;3.23;2.93;;;;;;;15.15;100.00;96932.25;5029681;28;105256;-62
2022/08/09 00:19:25;;;;;;;3.30;3.10;;;;;;;15.24;100.00;96930.63;5032838;28;105387;-62
2022/08/09 00:21:53;;;;;;;2.93;2.73;;;;;;;15.31;100.00;96926.63;5029533;28;105526;-62
2022/08/09 00:24:22;;;;;;;3.00;2.80;;;;;;;15.29;100.00;96927.97;5028303;28;104235;-62
2022/08/09 00:26:53;;;;;;;3.17;2.97;;;;;;;15.38;100.00;96923.72;5029770;28;101899;-62
2022/08/09 00:29:20;;;;;;;3.40;3.20;;;;;;;15.16;100.00;96928.50;5029716;28;105093;-62
2022/08/09 00:31:48;;;;;;;3.13;2.83;;;;;;;14.96;100.00;96928.44;5028883;28;106031;-62
2022/08/09 00:34:15;;;;;;;3.10;2.80;;;;;;;15.04;100.00;96933.28;5029629;28;102031;-62
2022/08/09 00:36:42;;;;;;;3.10;2.90;;;;;;;15.06;100.00;96931.16;5031178;28;102838;-62
2022/08/09 00:39:10;;;;;;;2.90;2.70;;;;;;;14.86;100.00;96928.41;5028947;28;105923;-62
2022/08/09 00:41:39;;;;;;;2.93;2.73;;;;;;;14.65;100.00;96932.09;5031950;27;102065;-62
2022/08/09 00:44:06;;;;;;;3.90;3.07;;;;;;;14.56;100.00;96928.31;5028887;28;105299;-62
2022/08/09 00:46:33;;;;;;;3.30;3.10;;;;;;;14.58;100.00;96936.88;5029629;28;102034;-62
2022/08/09 00:49:00;;;;;;;2.90;2.67;;;;;;;14.48;100.00;96929.63;5029525;28;105039;-62
2022/08/09 00:51:27;;;;;;;4.60;3.40;;;;;;;14.56;100.00;96929.13;5028722;28;105259;-62
2022/08/09 00:53:55;;;;;;;3.30;3.10;;;;;;;14.39;100.00;96931.19;5029245;28;101936;-62
2022/08/09 00:56:23;;;;;;;3.30;3.10;;;;;;;14.34;100.00;96922.34;5029456;28;104003;-62
2022/08/09 00:58:52;;;;;;;3.03;2.90;;;;;;;14.25;100.00;96934.59;5028717;28;105411;-62
2022/08/09 01:01:22;;;;;;;3.20;3.00;;;;;;;14.27;100.00;96925.25;5030164;28;101893;-62
2022/08/09 01:03:56;;;;;;;3.07;2.87;;;;;;;14.49;100.00;96933.13;5032008;28;104825;-62
2022/08/09 01:06:33;;;;;;;3.50;3.20;;;;;;;14.57;100.00;96929.94;5029115;28;101764;-62
2022/08/09 01:09:12;;;;;;;3.40;3.10;;;;;;;14.63;100.00;96928.88;5029316;28;103547;-62
2022/08/09 01:11:55;;;;;;;3.30;3.10;;;;;;;14.75;100.00;96932.13;5062510;27;105385;-62
2022/08/09 01:14:31;;;;;;;4.00;3.40;;;;;;;14.68;100.00;96935.06;5028951;28;101883;-62
2022/08/09 01:17:03;;;;;;;3.40;3.20;;;;;;;14.58;100.00;96932.34;5028710;28;105517;-62
2022/08/09 01:19:43;;;;;;;3.03;2.83;;;;;;;14.63;100.00;96935.06;5029858;28;102622;-62
2022/08/09 01:22:48;;;;;;;2.77;2.67;;;;;;;14.67;100.00;96935.31;5028758;28;101935;-62
2022/08/09 01:25:37;;;;;;;3.03;2.83;;;;;;;14.67;100.00;96927.28;5028452;28;105220;-62
2022/08/09 01:28:09;;;;;;;3.00;2.80;;;;;;;14.22;100.00;96941.25;5031651;28;105799;-62
2022/08/09 01:30:38;;;;;;;3.63;3.30;;;;;;;14.33;100.00;96936.78;5028800;28;105016;-62
2022/08/09 01:33:08;;;;;;;2.80;2.70;;;;;;;14.28;100.00;96942.91;5027753;28;104275;-62
2022/08/09 01:35:42;;;;;;;3.43;3.23;;;;;;;14.27;100.00;96932.44;5028739;28;101844;-62
2022/08/09 01:38:14;;;;;;;3.40;3.10;;;;;;;14.26;100.00;96939.69;5028818;28;104946;-62
2022/08/09 01:40:45;;;;;;;2.80;2.70;;;;;;;14.30;100.00;96931.94;5028072;28;105333;-62
2022/08/09 01:43:15;;;;;;;3.30;3.10;;;;;;;14.21;100.00;96937.00;5028700;28;101891;-62
2022/08/09 01:45:43;;;;;;;2.97;2.77;;;;;;;14.25;100.00;96932.75;5028276;28;104254;-62
2022/08/09 01:48:11;;;;;;;3.70;3.40;;;;;;;14.20;100.00;96943.41;5031253;28;105414;-62
2022/08/09 01:50:39;;;;;;;3.20;3.00;;;;;;;14.14;100.00;96941.75;5028354;28;104690;-62
2022/08/09 01:53:08;;;;;;;3.33;3.03;;;;;;;14.19;100.00;96939.13;5029968;27;105218;-62
2022/08/09 01:55:36;;;;;;;3.67;3.37;;;;;;;14.11;100.00;96944.91;5031838;28;101937;-62
2022/08/09 01:58:06;;;;;;;3.73;3.43;;;;;;;14.05;100.00;96942.47;5032212;28;105397;-62
2022/08/09 02:00:36;;;;;;;3.60;3.30;;;;;;;13.95;100.00;96942.44;5031333;28;104224;-62
2022/08/09 02:03:05;;;;;;;2.90;2.70;;;;;;;13.99;100.00;96947.00;5031874;28;102052;-62
2022/08/09 02:05:35;;;;;;;3.80;3.60;;;;;;;13.85;100.00;96947.69;5031801;28;104936;-62
2022/08/09 02:08:08;;;;;;;3.57;3.27;;;;;;;13.90;100.00;96955.75;5031439;28;105342;-62
2022/08/09 02:10:39;;;;;;;3.80;3.50;;;;;;;13.74;100.00;96952.16;5035158;28;101917;-62
2022/08/09 02:13:11;;;;;;;3.60;3.40;;;;;;;13.66;100.00;96954.50;5032780;28;102815;-62
2022/08/09 02:15:43;;;;;;;3.60;3.30;;;;;;;13.62;100.00;96961.44;5031679;28;101818;-62
2022/08/09 02:18:12;;;;;;;3.43;3.23;;;;;;;13.61;100.00;96962.47;5031583;28;104967;-62
2022/08/09 02:20:43;;;;;;;3.30;3.10;;;;;;;13.46;100.00;96965.03;5031002;28;105376;-62
2022/08/09 02:23:18;;;;;;;3.37;3.17;;;;;;;13.39;100.00;96964.41;5031854;28;101807;-62
2022/08/09 02:25:47;;;;;;;3.97;3.20;;;;;;;13.48;100.00;96971.75;5031447;28;104910;-62
2022/08/09 02:28:19;;;;;;;4.33;3.97;;;;;;;13.59;100.00;96968.09;5030858;28;105818;-62
2022/08/09 02:30:50;;;;;;;3.67;3.47;;;;;;;13.36;100.00;96970.28;5031346;28;101904;-62
2022/08/09 02:33:23;;;;;;;3.97;3.50;;;;;;;13.41;100.00;96956.97;5034308;28;105604;-62
2022/08/09 02:35:52;;;;;;;3.50;3.30;;;;;;;13.50;100.00;96971.47;5031440;28;101925;-62
2022/08/09 02:38:26;;;;;;;3.27;3.07;;;;;;;13.47;100.00;96967.44;5031369;28;105043;-62
2022/08/09 02:40:56;;;;;;;3.60;3.40;;;;;;;13.35;100.00;96966.78;5030539;28;105306;-62
2022/08/09 02:43:26;;;;;;;3.73;3.50;;;;;;;13.16;100.00;96964.75;5031377;28;102089;-62
2022/08/09 02:45:57;;;;;;;3.40;3.20;;;;;;;13.10;100.00;96966.56;5031340;28;106489;-62
2022/08/09 02:48:24;;;;;;;3.90;3.30;;;;;;;13.24;100.00;96967.75;5030656;28;104437;-62
2022/08/09 02:50:55;;;;;;;3.67;3.37;;;;;;;13.24;100.00;96962.41;5030979;28;101791;-62
2022/08/09 02:53:26;;;;;;;5.93;3.83;;;;;;;13.14;100.00;96964.97;5031316;28;103718;-62
2022/08/09 02:55:55;;;;;;;4.10;3.80;;;;;;;13.31;100.00;96962.22;5033983;28;105405;-62
2022/08/09 02:58:25;;;;;;;3.30;3.10;;;;;;;13.29;100.00;96961.66;5031273;28;104900;-62
2022/08/09 03:00:55;;;;;;;4.00;3.77;;;;;;;13.45;100.00;96958.06;5030146;28;105327;-62
2022/08/09 03:03:23;;;;;;;3.90;3.60;;;;;;;13.46;100.00;96963.16;5030743;27;101917;-62
2022/08/09 03:05:52;;;;;;;3.83;3.60;;;;;;;13.45;100.00;96958.88;5030433;28;105404;-62
2022/08/09 03:08:22;;;;;;;4.17;3.87;;;;;;;13.10;100.00;96965.75;5030332;28;105462;-62
2022/08/09 03:10:51;;;;;;;4.00;3.50;;;;;;;13.09;100.00;96966.81;5030899;28;101951;-62
2022/08/09 03:13:20;;;;;;;3.30;3.10;;;;;;;13.04;100.00;96966.75;5032346;28;102462;-62
2022/08/09 03:15:50;;;;;;;3.63;3.33;;;;;;;13.03;100.00;96975.84;5030126;28;105211;-62
2022/08/09 03:18:19;;;;;;;4.13;3.60;;;;;;;13.08;100.00;96973.22;5034032;28;102269;-62
2022/08/09 03:20:47;;;;;;;3.80;3.50;;;;;;;12.91;100.00;96972.47;5030105;28;105655;-62
2022/08/09 03:23:15;;;;;;;3.40;3.20;;;;;;;12.91;100.00;96967.94;5030480;28;101919;-62
2022/08/09 03:25:44;;;;;;;3.70;3.43;;;;;;;12.85;100.00;96970.78;5030803;28;103813;-62
2022/08/09 03:28:12;;;;;;;5.03;4.63;;;;;;;12.93;100.00;96965.81;5030032;28;104107;-62
2022/08/09 03:30:39;;;;;;;4.60;4.30;;;;;;;12.88;100.00;96967.63;5030289;28;101972;-62
2022/08/09 03:33:08;;;;;;;4.43;4.13;;;;;;;12.98;100.00;96965.88;5030542;28;103982;-62
2022/08/09 03:35:38;;;;;;;4.07;3.77;;;;;;;12.93;100.00;96962.34;5029948;28;104440;-62
2022/08/09 03:38:06;;;;;;;3.90;3.60;;;;;;;12.92;100.00;96963.41;5030661;28;102223;-62
2022/08/09 03:40:33;;;;;;;4.10;3.80;;;;;;;13.03;100.00;96971.28;5033335;28;105367;-62
2022/08/09 03:43:00;;;;;;;4.00;3.70;;;;;;;13.03;100.00;96965.94;5030162;28;101978;-62
2022/08/09 03:45:27;;;;;;;3.90;3.60;;;;;;;13.09;100.00;96972.16;5064270;27;105277;-62
2022/08/09 03:47:54;;;;;;;3.63;3.43;;;;;;;13.19;100.00;96980.28;5029671;28;105527;-62
2022/08/09 03:50:25;;;;;;;6.70;4.30;;;;;;;13.25;100.00;96968.59;5030450;28;101932;-62
2022/08/09 03:52:55;;;;;;;3.90;3.70;;;;;;;13.28;100.00;96973.41;5030358;28;105033;-62
2022/08/09 03:55:23;;;;;;;4.13;3.93;;;;;;;13.28;100.00;96971.53;5029751;28;105511;-62
2022/08/09 03:57:50;;;;;;;6.17;4.50;;;;;;;13.28;100.00;96973.41;5029973;28;102096;-62
2022/08/09 04:00:18;;;;;;;4.13;3.83;;;;;;;13.15;100.00;96979.97;5034198;28;102352;-62
2022/08/09 04:02:46;;;;;;;3.80;3.50;;;;;;;13.11;100.00;96984.19;5030230;28;101889;-62
2022/08/09 04:05:14;;;;;;;4.57;4.27;;;;;;;12.82;100.00;96984.63;5029766;28;105696;-62
2022/08/09 04:07:41;;;;;;;3.90;3.60;;;;;;;12.88;100.00;96989.78;5029772;28;105118;-62
2022/08/09 04:10:11;;;;;;;3.97;3.67;;;;;;;12.78;100.00;96991.53;5029772;28;102139;-62
2022/08/09 04:12:45;;;;;;;4.30;4.03;;;;;;;12.81;100.00;96988.38;5031161;28;102333;-62
2022/08/09 04:15:13;;;;;;;4.20;3.90;;;;;;;12.78;100.00;96988.84;5028536;27;105987;-62
2022/08/09 04:17:40;;;;;;;4.30;4.00;;;;;;;12.92;100.00;96990.09;5029482;28;102117;-62
2022/08/09 04:20:09;;;;;;;4.43;4.10;;;;;;;13.05;100.00;96993.22;5031031;28;102351;-62
2022/08/09 04:22:37;;;;;;;4.33;4.03;;;;;;;13.14;100.00;96988.22;5033899;28;102867;-62
2022/08/09 04:25:05;;;;;;;4.37;4.07;;;;;;;13.21;100.00;96991.50;5030612;28;102883;-62
2022/08/09 04:27:37;;;;;;;4.57;4.17;;;;;;;13.25;100.00;96996.06;5030496;28;102680;-62
2022/08/09 04:30:05;;;;;;;4.17;3.87;;;;;;;13.26;100.00;96997.72;5030835;28;101742;-62
2022/08/09 04:32:32;;;;;;;4.87;4.57;;;;;;;13.21;100.00;96999.50;5031121;27;102831;-62
2022/08/09 04:34:59;;;;;;;6.27;4.67;;;;;;;13.16;100.00;97005.63;5028796;28;105468;-62
2022/08/09 04:37:26;;;;;;;5.00;4.60;;;;;;;13.23;100.00;97006.22;5030886;28;101932;-62
2022/08/09 04:39:53;;;;;;;5.13;4.73;;;;;;;13.30;100.00;97006.03;5030806;28;102582;-62
2022/08/09 04:42:21;;;;;;;5.10;4.70;;;;;;;13.21;100.00;97010.19;5030266;27;102496;-62
2022/08/09 04:44:50;;;;;;;5.10;4.60;;;;;;;13.35;100.00;97017.56;5034306;27;102487;-62
2022/08/09 04:47:17;;;;;;;5.10;4.60;;;;;;;13.44;100.00;97012.56;5028719;28;105404;-62
2022/08/09 04:49:44;;;;;;;5.77;4.73;;;;;;;13.66;100.00;97024.81;5029318;28;102030;-62
2022/08/09 04:52:12;;;;;;;4.70;4.37;;;;;;;13.80;100.00;97019.84;5029389;28;103680;-62
2022/08/09 04:54:39;;;;;;;4.80;4.40;;;;;;;13.87;100.00;97015.91;5030093;28;102628;-62
2022/08/09 04:57:06;;;;;;;4.73;4.40;;;;;;;13.88;100.00;97019.34;5028910;28;102096;-62
2022/08/09 04:59:33;;;;;;;5.13;4.73;;;;;;;13.98;100.00;97019.44;5028998;28;104595;-62
2022/08/09 05:02:02;;;;;;;4.73;4.33;;;;;;;14.13;100.00;97015.03;5028579;28;103831;-62
2022/08/09 05:04:29;;;;;;;5.07;4.77;;;;;;;14.25;100.00;97018.34;5028999;28;102066;-62
2022/08/09 05:06:56;;;;;;;5.03;4.63;;;;;;;14.28;100.00;97012.47;5031959;28;105412;-62
2022/08/09 05:09:23;;;;;;;5.30;4.90;;;;;;;14.44;100.00;97016.06;5029161;28;101882;-62
2022/08/09 05:11:50;;;;;;;5.13;4.80;;;;;;;14.54;100.00;97021.44;5028967;28;103978;-62
2022/08/09 05:14:17;;;;;;;5.43;4.60;;;;;;;14.67;100.00;97021.00;5029817;28;102746;-62
2022/08/09 05:16:44;;;;;;;5.07;4.67;;;;;;;14.74;100.00;97024.22;5030102;28;101969;-62
2022/08/09 05:19:14;;;;;;;4.87;4.47;;;;;;;14.89;100.00;97019.72;5030176;28;102367;-62
2022/08/09 05:21:41;;;;;;;5.73;5.23;;;;;;;15.09;100.00;97019.81;5029630;28;102880;-62
2022/08/09 05:24:08;;;;;;;5.03;4.27;;;;;;;15.19;100.00;97014.50;5028603;28;101970;-62
2022/08/09 05:26:36;;;;;;;5.13;4.70;;;;;;;15.23;100.00;97022.81;5028399;28;103617;-62
2022/08/09 05:29:03;;;;;;;5.80;5.27;;;;;;;15.31;100.00;97019.63;5031355;28;105284;-62
2022/08/09 05:31:30;;;;;;;7.00;5.60;;;;;;;15.26;100.00;97022.28;5028802;28;105590;-62
2022/08/09 05:33:57;;;;;;;6.13;5.60;;;;;;;15.07;100.00;97032.69;5029390;28;102689;-62
2022/08/09 05:36:26;;;;;;;6.23;5.73;;;;;;;15.11;100.00;97030.28;5030375;28;101695;-62
2022/08/09 05:38:53;;;;;;;6.17;5.67;;;;;;;15.05;100.00;97025.97;5028971;28;103455;-62
2022/08/09 05:41:20;;;;;;;6.53;5.87;;;;;;;15.16;100.00;97025.72;5029513;27;103333;-62
2022/08/09 05:43:47;;;;;;;6.57;5.43;;;;;;;15.16;100.00;97033.75;5028357;28;101888;-62
2022/08/09 05:46:15;;;;;;;6.47;5.87;;;;;;;15.09;100.00;97027.06;5028561;28;105413;-62
2022/08/09 05:48:42;;;;;;;6.10;5.50;;;;;;;15.19;100.00;97029.75;5029413;27;102617;-62
2022/08/09 05:51:09;;;;;;;6.83;6.33;;;;;;;15.34;100.00;97037.88;5033433;27;101731;-62
2022/08/09 05:53:38;;;;;;;5.83;5.43;;;;;;;15.53;100.00;97031.75;5029003;28;102663;-62
2022/08/09 05:56:06;;;;;;;6.37;5.83;;;;;;;15.73;100.00;97030.97;5028614;28;101993;-62
2022/08/09 05:58:33;;;;;;;5.33;4.93;;;;;;;15.88;100.00;97030.97;5028579;28;104063;-62
2022/08/09 06:01:00;;;;;;;5.83;5.37;;;;;;;16.08;100.00;97025.63;5029222;28;103123;-62
2022/08/09 06:03:28;;;;;;;6.03;5.43;;;;;;;15.94;100.00;97027.22;5028465;28;101938;-62
2022/08/09 06:05:55;;;;;;;5.20;4.90;;;;;;;16.02;100.00;97030.19;5029995;28;102835;-62
2022/08/09 06:08:22;;;;;;;5.80;5.40;;;;;;;16.17;100.00;97029.34;5027363;28;105538;-62
2022/08/09 06:10:52;;;;;;;5.50;4.97;;;;;;;16.49;100.00;97032.56;5031617;28;101904;-62
2022/08/09 06:13:19;;;;;;;5.33;4.83;;;;;;;16.56;100.00;97027.75;5027649;28;105037;-62
2022/08/09 06:15:46;;;;;;;5.13;4.73;;;;;;;16.58;100.00;97025.56;5028166;28;101848;-62
2022/08/09 06:18:14;;;;;;;4.93;4.63;;;;;;;16.77;100.00;97031.97;5028102;28;105175;-62
2022/08/09 06:20:42;;;;;;;4.70;4.33;;;;;;;16.87;100.00;97027.38;5027563;28;104299;-62
2022/08/09 06:23:09;;;;;;;5.00;4.60;;;;;;;17.09;100.00;97035.88;5027889;28;102432;-62
2022/08/09 06:25:36;;;;;;;5.00;4.57;;;;;;;17.31;100.00;97030.94;5027982;28;104937;-62
2022/08/09 06:28:06;;;;;;;5.13;4.63;;;;;;;17.54;100.00;97032.97;5027575;28;105418;-62
2022/08/09 06:30:33;;;;;;;6.20;4.93;;;;;;;17.55;100.00;97034.56;5028046;28;101880;-62
2022/08/09 06:33:01;;;;;;;5.60;5.20;;;;;;;17.32;100.00;97034.41;5030826;28;104866;-62
2022/08/09 06:35:28;;;;;;;5.50;5.03;;;;;;;17.47;100.00;97028.97;5028064;28;101975;-62
2022/08/09 06:37:55;;;;;;;6.30;4.87;;;;;;;17.72;100.00;97036.91;5027954;27;105328;-62
2022/08/09 06:40:23;;;;;;;5.00;4.63;;;;;;;17.31;100.00;97033.63;5029746;28;105055;-62
2022/08/09 06:42:50;;;;;;;5.40;4.90;;;;;;;17.53;100.00;97033.25;5031411;28;101864;-62
2022/08/09 06:45:20;;;;;;;5.73;5.30;;;;;;;17.60;100.00;97031.06;5031221;28;105876;-62
2022/08/09 06:47:47;;;;;;;6.07;5.20;;;;;;;17.73;100.00;97033.13;5030675;28;104567;-62
2022/08/09 06:50:16;;;;;;;5.60;4.90;;;;;;;18.16;100.00;97035.72;5031526;28;102278;-62
2022/08/09 06:52:45;;;;;;;4.90;4.43;;;;;;;18.41;100.00;97043.63;5030923;28;104095;-62
2022/08/09 06:55:12;;;;;;;4.47;4.17;;;;;;;18.54;100.00;97034.09;5034128;28;105218;-62
2022/08/09 06:57:39;;;;;;;5.40;5.00;;;;;;;18.49;100.00;97036.81;5031272;28;106592;-62
2022/08/09 07:00:08;;;;;;;4.70;4.37;;;;;;;18.53;100.00;97037.88;5031692;27;104153;-62
2022/08/09 07:02:36;;;;;;;6.27;4.70;;;;;;;18.68;100.00;97032.31;5031143;28;101853;-62
2022/08/09 07:05:04;;;;;;;4.93;4.53;;;;;;;18.81;100.00;97037.81;5030645;28;105159;-62
2022/08/09 07:07:31;;;;;;;4.80;4.33;;;;;;;19.00;100.00;97040.56;5030387;28;105280;-62
2022/08/09 07:09:59;;;;;;;4.60;4.30;;;;;;;19.18;100.00;97037.94;5030948;28;102469;-62
2022/08/09 07:12:25;;;;;;;5.30;4.80;;;;;;;19.19;100.00;97041.44;5030873;28;105760;-62
2022/08/09 07:14:52;;;;;;;4.80;4.40;;;;;;;19.22;100.00;97044.38;5030113;28;105803;-62
2022/08/09 07:17:20;;;;;;;7.23;4.30;;;;;;;19.19;100.00;97044.13;5034141;28;101971;-62
2022/08/09 07:19:49;;;;;;;4.53;4.23;;;;;;;19.01;100.00;97045.69;5030058;28;104365;-62
2022/08/09 07:22:16;;;;;;;4.57;4.23;;;;;;;19.53;100.00;97045.59;5030781;28;102098;-62
2022/08/09 07:24:44;;;;;;;4.03;3.73;;;;;;;19.75;100.00;97037.72;5030206;28;105441;-62
2022/08/09 07:27:12;;;;;;;4.03;3.73;;;;;;;19.92;100.00;97040.69;5030007;28;104445;-62
2022/08/09 07:29:40;;;;;;;4.30;3.90;;;;;;;19.40;100.00;97035.50;5030677;28;102396;-62
2022/08/09 07:32:07;;;;;;;4.70;4.10;;;;;;;19.50;100.00;97037.28;5030494;28;105258;-62
2022/08/09 07:34:35;;;;;;;3.90;3.47;;;;;;;20.06;100.00;97038.06;5029963;28;105968;-62
2022/08/09 07:37:03;;;;;;;4.00;3.70;;;;;;;20.37;100.00;97039.16;5030584;28;102189;-62
2022/08/09 07:39:30;;;;;;;5.03;3.60;;;;;;;20.34;100.00;97040.59;5033166;28;104108;-62
2022/08/09 07:41:58;;;;;;;3.83;3.53;;;;;;;20.83;100.00;97037.25;5030400;28;102072;-62
2022/08/09 07:44:24;;;;;;;3.30;3.10;;;;;;;21.02;100.00;97040.69;5030118;28;105156;-62
2022/08/09 07:46:52;;;;;;;5.03;3.13;;;;;;;21.30;100.00;97045.03;5029679;28;105798;-62
2022/08/09 07:49:19;;;;;;;3.93;3.50;;;;;;;21.10;100.00;97046.19;5030320;28;101880;-62
2022/08/09 07:51:46;;;;;;;3.83;3.17;;;;;;;21.44;100.00;97048.50;5029994;27;104089;-62
2022/08/09 07:54:15;;;;;;;3.77;3.43;;;;;;;21.50;100.00;97039.97;5063776;27;104315;-62
2022/08/09 07:56:42;;;;;;;3.23;2.93;;;;;;;21.68;100.00;97039.06;5030065;28;102078;-62
2022/08/09 07:59:09;;;;;;;2.40;2.17;;;;;;;21.75;100.00;97044.84;5030166;28;106380;-62
2022/08/09 08:01:37;;;;;;;2.77;2.57;;;;;;;22.06;100.00;97042.25;5032709;28;102024;-62
2022/08/09 08:04:05;;;;;;;2.67;2.47;;;;;;;22.21;100.00;97047.28;5030164;28;104566;-62
2022/08/09 08:06:32;;;;;;;2.70;2.50;;;;;;;22.52;100.00;97040.84;5029100;28;105028;-62
2022/08/09 08:08:59;;;;;;;2.43;2.30;;;;;;;22.50;100.00;97047.69;5030023;28;101957;-62
2022/08/09 08:11:28;;;;;;;2.40;2.30;;;;;;;22.64;100.00;97041.06;5029708;28;106426;-62
2022/08/09 08:13:55;;;;;;;2.30;2.10;;;;;;;22.81;100.00;97043.06;5029459;28;105417;-62
2022/08/09 08:16:22;;;;;;;2.50;2.30;;;;;;;22.88;100.00;97044.22;5029858;28;101866;-62
2022/08/09 08:18:50;;;;;;;2.10;2.00;;;;;;;23.19;100.00;97036.06;5029605;28;105323;-62
2022/08/09 08:21:17;;;;;;;2.40;2.20;;;;;;;22.94;100.00;97039.47;5032443;28;105371;-62
2022/08/09 08:23:45;;;;;;;2.60;2.40;;;;;;;23.30;100.00;97045.50;5029476;28;104961;-62
2022/08/09 08:26:12;;;;;;;1.90;1.80;;;;;;;23.42;100.00;97056.56;5029154;28;105696;-62
2022/08/09 08:28:41;;;;;;;3.70;2.50;;;;;;;23.60;100.00;97044.63;5029672;28;102093;-62
2022/08/09 08:31:08;;;;;;;3.37;2.23;;;;;;;23.83;100.00;97046.09;5029514;28;105272;-62
2022/08/09 08:33:35;;;;;;;1.97;1.87;;;;;;;24.15;100.00;97043.72;5028986;28;105336;-62
2022/08/09 08:36:03;;;;;;;2.67;2.10;;;;;;;24.12;100.00;97038.94;5029599;28;102023;-62
2022/08/09 08:38:29;;;;;;;2.40;2.20;;;;;;;24.24;100.00;97043.75;5029258;28;105935;-62
2022/08/09 08:40:58;;;;;;;2.10;2.00;;;;;;;24.29;100.00;97044.34;5028951;28;106262;-62
2022/08/09 08:43:26;;;;;;;2.20;1.90;;;;;;;24.56;100.00;97035.84;5033039;28;101998;-62
2022/08/09 08:46:02;;;;;;;2.13;1.87;;;;;;;24.90;100.00;97043.16;5028879;28;104304;-62
2022/08/09 08:48:30;;;;;;;5.00;1.87;;;;;;;24.97;100.00;97048.88;5029127;28;102102;-62
2022/08/09 08:50:58;;;;;;;1.80;1.70;;;;;;;24.87;97.78;97035.63;5029334;28;103636;-62
2022/08/09 08:53:25;;;;;;;2.13;1.93;;;;;;;25.06;94.52;97038.75;5028838;28;105554;-62
2022/08/09 08:55:52;;;;;;;3.47;2.17;;;;;;;25.29;86.55;97030.00;5030720;28;101809;-62
2022/08/09 08:58:21;;;;;;;1.63;1.53;;;;;;;25.43;82.53;97036.03;5029297;28;105541;-62
2022/08/09 09:00:48;;;;;;;3.10;1.90;;;;;;;25.54;84.53;97036.44;5028203;28;104469;-62
2022/08/09 09:03:17;;;;;;;2.60;1.83;;;;;;;25.51;83.61;97037.88;5028529;28;101847;-62
2022/08/09 09:05:46;;;;;;;2.50;1.63;;;;;;;25.53;71.40;97032.94;5032013;28;103840;-62
2022/08/09 09:08:15;;;;;;;2.30;1.90;;;;;;;25.62;75.47;97033.66;5029184;28;102081;-62
2022/08/09 09:10:44;;;;;;;4.93;1.87;;;;;;;25.92;76.82;97037.16;5030396;28;102376;-62
2022/08/09 09:13:11;;;;;;;1.63;1.53;;;;;;;26.10;66.80;97035.91;5028285;28;103993;-62
2022/08/09 09:15:39;;;;;;;2.30;1.67;;;;;;;25.81;59.29;97031.28;5028790;28;102201;-62
2022/08/09 09:18:06;;;;;;;1.60;1.50;;;;;;;25.60;65.82;97029.69;5028954;28;104209;-62
2022/08/09 09:20:37;;;;;;;2.10;1.57;;;;;;;26.23;65.44;97032.09;5062203;27;105022;-62
2022/08/09 09:23:04;;;;;;;3.63;1.67;;;;;;;26.40;68.86;97034.66;5029017;28;101908;-62
2022/08/09 09:25:37;;;;;;;1.77;1.60;;;;;;;26.68;55.85;97030.22;5028443;28;105301;-62
2022/08/09 09:28:05;;;;;;;3.27;1.33;;;;;;;26.50;52.30;97031.53;5031728;28;104302;-62
2022/08/09 09:30:34;;;;;;;1.47;1.37;;;;;;;26.85;53.03;97033.56;5028754;28;105585;-63
2022/08/09 09:33:03;;;;;;;1.90;1.40;;;;;;;27.03;51.31;97034.19;5028160;28;105165;-63
2022/08/09 09:35:30;;;;;;;1.40;1.30;;;;;;;26.98;47.13;97031.66;5028488;28;102384;-63
2022/08/09 09:37:59;;;;;;;2.23;1.40;;;;;;;27.23;46.48;97038.75;5028754;28;105953;-63
2022/08/09 09:40:57;;;;;;;3.07;1.30;;;;;;;27.05;41.66;97032.69;5028044;28;105393;-63
2022/08/09 09:43:24;;;;;;;1.27;1.17;;;;;;;27.17;43.56;97035.47;4970742;28;102058;-63
2022/08/09 09:45:53;;;;;;;1.47;1.37;;;;;;;27.03;45.47;97034.97;4970844;28;105035;-63
2022/08/09 09:48:22;;;;;;;1.57;1.30;;;;;;;27.06;44.16;97041.66;4969886;28;105620;-63
2022/08/09 09:50:52;;;;;;;2.33;1.30;;;;;;;27.23;42.20;97033.28;4974485;28;102081;-63
2022/08/09 09:53:22;;;;;;;1.00;1.00;;;;;;;27.25;43.17;97026.34;5003750;28;105507;-63
2022/08/09 09:55:55;;;;;;;1.20;1.10;;;;;;;27.28;42.25;97024.88;4987371;28;101718;-63
2022/08/09 09:58:22;;;;;;;3.33;1.50;;;;;;;27.11;44.44;97016.88;4987649;28;102333;-63
2022/08/09 10:00:51;;;;;;;2.07;1.10;;;;;;;27.48;43.56;97027.50;4969625;28;105323;-63
2022/08/09 10:03:18;;;;;;;1.90;1.40;;;;;;;27.67;42.66;97022.22;5004078;28;101931;-63
2022/08/09 10:05:58;;;;;;;2.97;1.40;;;;;;;27.64;42.02;97022.94;4987688;28;102669;-63
2022/08/09 10:08:26;;;;;;;1.90;1.60;;;;;;;27.65;42.99;97023.72;4970122;28;105550;-63
2022/08/09 10:10:54;;;;;;;2.20;1.50;;;;;;;27.82;40.94;97029.75;4973892;28;102075;-63
2022/08/09 10:13:21;;;;;;;1.30;1.20;;;;;;;27.97;40.05;97018.09;4969953;28;105054;-63
2022/08/09 10:15:49;;;;;;;3.70;1.13;;;;;;;27.54;40.87;97017.13;4973319;28;101878;-63
2022/08/09 10:18:16;;;;;;;1.80;1.40;;;;;;;28.05;39.90;97022.63;5007359;28;105657;-63
2022/08/09 10:20:44;;;;;;;2.07;1.47;;;;;;;27.64;39.25;97016.66;5001988;28;105559;-63
2022/08/09 10:23:18;;;;;;;1.60;1.10;;;;;;;27.70;39.59;97021.56;5031848;28;101868;-63
2022/08/09 10:25:48;;;;;;;1.70;1.30;;;;;;;27.83;39.89;97019.59;5033305;28;102649;-63
2022/08/09 10:28:15;;;;;;;1.63;1.53;;;;;;;28.05;39.62;97021.81;5030958;28;105460;-63
2022/08/09 10:30:41;;;;;;;2.40;1.23;;;;;;;28.34;39.95;97014.06;5031441;28;101916;-63
2022/08/09 10:33:09;;;;;;;1.73;1.30;;;;;;;28.58;39.48;97019.47;5034279;28;105624;-63
2022/08/09 10:35:37;;;;;;;1.63;1.10;;;;;;;28.60;39.12;97021.88;5031377;28;101953;-63
2022/08/09 10:38:06;;;;;;;1.37;1.27;;;;;;;28.58;38.24;97022.22;5031472;28;104849;-63
2022/08/09 10:40:34;;;;;;;4.43;1.40;;;;;;;28.53;39.08;97027.13;5032180;28;103728;-63
2022/08/09 10:43:05;;;;;;;1.57;1.20;;;;;;;28.40;38.99;97018.19;5031139;28;101784;-63
2022/08/09 10:45:33;;;;;;;1.53;1.43;;;;;;;28.34;39.44;97010.56;5031545;28;105240;-62
2022/08/09 10:48:07;;;;;;;1.57;1.33;;;;;;;28.43;41.28;97012.00;5032005;28;102857;-62
2022/08/09 10:53:42;;;;;;;1.60;1.17;;;;;;;28.62;39.38;97011.34;5031000;28;105464;-62
2022/08/09 10:56:18;;;;;;;3.40;1.23;;;;;;;28.36;38.46;97008.25;5034107;28;105431;-63
2022/08/09 10:58:47;;;;;;;1.67;1.40;;;;;;;28.79;37.19;97005.53;5030541;28;106382;-63
2022/08/09 11:01:38;;;;;;;2.43;1.33;;;;;;;28.46;37.74;97011.34;5064417;27;102803;-63
2022/08/09 11:04:13;;;;;;;1.37;1.27;;;;;;;28.97;37.82;97004.88;5030888;28;101854;-63
2022/08/09 11:06:41;;;;;;;3.33;1.30;;;;;;;28.95;37.50;97000.88;5031210;28;102836;-63
2022/08/09 11:09:10;;;;;;;1.60;1.30;;;;;;;29.06;37.00;96996.50;5030334;28;104373;-63
2022/08/09 11:12:11;;;;;;;1.92;1.30;;;;;;;29.27;36.63;96997.78;5031126;28;101859;-63
2022/08/09 11:14:43;;;;;;;2.03;1.65;;;;;;;29.39;34.94;96994.16;5030976;28;105784;-63
2022/08/09 11:17:51;;;;;;;2.55;1.48;;;;;;;29.60;36.20;96989.19;5030148;28;105471;-63
2022/08/09 11:20:37;;;;;;;2.85;1.25;;;;;;;29.75;35.62;96991.09;5034466;28;101778;-63
2022/08/09 11:23:05;;;;;;;2.22;1.30;;;;;;;29.44;36.48;96991.13;5031838;28;102831;-63
2022/08/09 11:25:48;;;;;;;1.20;1.13;;;;;;;29.44;35.40;96991.94;5031283;28;102332;-63
2022/08/09 11:28:39;;;;;;;2.20;1.40;;;;;;;29.82;35.32;96988.50;5032158;27;102851;-63
2022/08/09 11:31:44;;;;;;;1.33;1.23;;;;;;;29.80;34.92;96985.34;5028994;27;102559;-63
2022/08/09 11:34:20;;;;;;;1.75;1.30;;;;;;;29.72;35.38;96986.31;5028563;28;101959;-63